Time,TemperatureF,DewpointF,PressureIn,WindDirection,WindDirectionDegrees,WindSpeedMPH,WindSpeedGustMPH,Humidity,HourlyPrecipIn,Conditions,Clouds,dailyrainin,SoftwareType,DateUTC
2013-01-31 00:04:00,34.0,9.2,23.86,SSW,198,3.6,4.9,35,0.00,,---,0.00,VWS V14.01,2013-01-31 07:04:00,
2013-01-31 00:10:00,33.8,9.1,23.86,SE,142,0.0,2.7,35,0.00,,---,0.00,VWS V14.01,2013-01-31 07:10:00,
2013-01-31 00:16:00,33.8,9.1,23.86,SE,135,4.0,6.3,35,0.00,,---,0.00,VWS V14.01,2013-01-31 07:16:00,
2013-01-31 00:21:00,33.6,8.9,23.86,NNW,335,3.1,6.3,35,0.00,,---,0.00,VWS V14.01,2013-01-31 07:21:00,
2013-01-31 00:27:00,33.8,9.1,23.83,WNW,302,3.1,3.6,35,0.00,,---,0.00,VWS V14.01,2013-01-31 07:27:00,
2013-01-31 00:32:00,34.3,8.9,23.83,SW,235,6.3,6.3,34,0.00,,---,0.00,VWS V14.01,2013-01-31 07:32:00,
2013-01-31 00:38:00,34.3,8.9,23.83,ESE,115,12.3,12.3,34,0.00,,---,0.00,VWS V14.01,2013-01-31 07:38:00,
2013-01-31 00:43:00,34.9,9.4,23.83,WNW,298,4.0,4.0,34,0.00,,---,0.00,VWS V14.01,2013-01-31 07:43:00,
2013-01-31 00:49:00,34.9,9.4,23.83,SE,142,3.1,4.0,34,0.00,,---,0.00,VWS V14.01,2013-01-31 07:49:00,
2013-01-31 00:55:00,34.5,9.1,23.83,SSW,213,3.6,8.1,34,0.00,,---,0.00,VWS V14.01,2013-01-31 07:55:00,
2013-01-31 01:00:00,34.5,9.1,23.83,South,182,4.0,4.0,34,0.00,,---,0.00,VWS V14.01,2013-01-31 08:00:00,
2013-01-31 01:08:00,34.0,8.6,23.83,SSE,157,0.0,2.2,34,0.00,,---,0.00,VWS V14.01,2013-01-31 08:08:00,
2013-01-31 01:13:00,34.3,8.2,23.83,WSW,240,4.9,6.3,33,0.00,,---,0.00,VWS V14.01,2013-01-31 08:13:00,
2013-01-31 01:19:00,35.2,9.0,23.83,SE,141,0.0,8.3,33,0.00,,---,0.00,VWS V14.01,2013-01-31 08:19:00,
2013-01-31 01:24:00,35.2,9.0,23.83,West,279,8.7,8.7,33,0.00,,---,0.00,VWS V14.01,2013-01-31 08:24:00,
2013-01-31 01:29:00,35.4,9.2,23.83,WNW,295,5.4,5.4,33,0.00,,---,0.00,VWS V14.01,2013-01-31 08:29:00,
2013-01-31 01:35:00,35.4,9.2,23.83,SSW,213,3.1,7.2,33,0.00,,---,0.00,VWS V14.01,2013-01-31 08:35:00,
2013-01-31 01:40:00,35.6,8.7,23.83,NE,55,12.3,12.3,32,0.00,,---,0.00,VWS V14.01,2013-01-31 08:40:00,
2013-01-31 01:46:00,35.6,8.7,23.83,WNW,289,4.0,4.0,32,0.00,,---,0.00,VWS V14.01,2013-01-31 08:46:00,
2013-01-31 01:51:00,35.4,9.2,23.83,NW,308,8.3,8.3,33,0.00,,---,0.00,VWS V14.01,2013-01-31 08:51:00,
2013-01-31 01:56:00,35.6,8.7,23.86,West,279,10.5,10.5,32,0.00,,---,0.00,VWS V14.01,2013-01-31 08:56:00,
2013-01-31 02:02:00,35.4,9.2,23.86,East,96,2.7,5.8,33,0.00,,---,0.00,VWS V14.01,2013-01-31 09:02:00,
2013-01-31 02:07:00,35.4,9.2,23.86,SSW,197,4.9,5.4,33,0.00,,---,0.00,VWS V14.01,2013-01-31 09:07:00,
2013-01-31 02:13:00,35.2,9.0,23.86,West,271,5.4,8.3,33,0.00,,---,0.00,VWS V14.01,2013-01-31 09:13:00,
2013-01-31 02:18:00,35.4,9.2,23.86,WSW,252,5.8,11.0,33,0.00,,---,0.00,VWS V14.01,2013-01-31 09:18:00,
2013-01-31 02:24:00,35.2,9.0,23.86,SSW,211,8.1,11.0,33,0.00,,---,0.00,VWS V14.01,2013-01-31 09:24:00,
2013-01-31 02:29:00,35.2,9.0,23.86,South,169,5.4,12.3,33,0.00,,---,0.00,VWS V14.01,2013-01-31 09:29:00,
2013-01-31 02:34:00,35.2,9.0,23.86,South,179,2.7,2.7,33,0.00,,---,0.00,VWS V14.01,2013-01-31 09:34:00,
2013-01-31 02:40:00,35.1,8.9,23.86,WSW,248,2.7,8.1,33,0.00,,---,0.00,VWS V14.01,2013-01-31 09:40:00,
2013-01-31 02:45:00,35.2,9.0,23.86,South,189,6.3,6.3,33,0.00,,---,0.00,VWS V14.01,2013-01-31 09:45:00,
2013-01-31 02:50:00,35.1,8.9,23.86,SW,225,2.2,4.0,33,0.00,,---,0.00,VWS V14.01,2013-01-31 09:50:00,
2013-01-31 02:55:00,34.9,8.7,23.86,SE,132,3.1,4.0,33,0.00,,---,0.00,VWS V14.01,2013-01-31 09:55:00,
2013-01-31 03:01:00,34.9,9.4,23.86,WNW,301,2.7,8.7,34,0.00,,---,0.00,VWS V14.01,2013-01-31 10:01:00,
2013-01-31 03:07:00,34.9,8.7,23.86,SW,236,5.4,5.4,33,0.00,,---,0.00,VWS V14.01,2013-01-31 10:07:00,
2013-01-31 03:13:00,35.2,9.0,23.86,WSW,238,5.4,8.7,33,0.00,,---,0.00,VWS V14.01,2013-01-31 10:13:00,
2013-01-31 03:19:00,35.6,9.4,23.86,West,280,7.2,7.2,33,0.00,,---,0.00,VWS V14.01,2013-01-31 10:19:00,
2013-01-31 03:25:00,35.6,9.4,23.86,NW,324,3.1,5.8,33,0.00,,---,0.00,VWS V14.01,2013-01-31 10:25:00,
2013-01-31 03:31:00,35.6,8.7,23.86,NNE,13,3.6,10.5,32,0.00,,---,0.00,VWS V14.01,2013-01-31 10:31:00,
2013-01-31 03:36:00,35.8,8.8,23.86,SE,127,2.2,8.3,32,0.00,,---,0.00,VWS V14.01,2013-01-31 10:36:00,
2013-01-31 03:41:00,35.4,9.2,23.86,ESE,120,2.7,3.6,33,0.00,,---,0.00,VWS V14.01,2013-01-31 10:41:00,
2013-01-31 03:46:00,35.2,9.0,23.86,NW,320,4.0,6.3,33,0.00,,---,0.00,VWS V14.01,2013-01-31 10:46:00,
2013-01-31 03:52:00,35.2,9.0,23.86,SSE,152,0.0,3.1,33,0.00,,---,0.00,VWS V14.01,2013-01-31 10:52:00,
2013-01-31 03:58:00,34.9,8.7,23.86,WNW,295,0.0,0.0,33,0.00,,---,0.00,VWS V14.01,2013-01-31 10:58:00,
2013-01-31 04:03:00,34.3,8.2,23.86,WNW,295,0.0,0.0,33,0.00,,---,0.00,VWS V14.01,2013-01-31 11:03:00,
2013-01-31 04:09:00,33.8,8.4,23.89,ENE,57,2.7,3.6,34,0.00,,---,0.00,VWS V14.01,2013-01-31 11:09:00,
2013-01-31 04:14:00,33.4,8.7,23.89,SW,225,2.7,4.0,35,0.00,,---,0.00,VWS V14.01,2013-01-31 11:14:00,
2013-01-31 04:20:00,33.8,8.4,23.89,SW,226,2.2,3.1,34,0.00,,---,0.00,VWS V14.01,2013-01-31 11:20:00,
2013-01-31 04:25:00,33.8,8.4,23.89,ESE,112,0.0,3.6,34,0.00,,---,0.00,VWS V14.01,2013-01-31 11:25:00,
2013-01-31 04:30:00,34.3,8.2,23.89,NNW,341,3.6,3.6,33,0.00,,---,0.00,VWS V14.01,2013-01-31 11:30:00,
2013-01-31 04:35:00,34.5,9.1,23.89,SSW,213,0.0,0.0,34,0.00,,---,0.00,VWS V14.01,2013-01-31 11:35:00,
2013-01-31 04:41:00,34.3,8.9,23.89,North,10,3.1,3.1,34,0.00,,---,0.00,VWS V14.01,2013-01-31 11:41:00,
2013-01-31 04:47:00,34.5,8.4,23.89,WNW,303,0.0,0.0,33,0.00,,---,0.00,VWS V14.01,2013-01-31 11:47:00,
2013-01-31 04:53:00,33.8,8.4,23.89,ENE,61,5.8,5.8,34,0.00,,---,0.00,VWS V14.01,2013-01-31 11:53:00,
2013-01-31 04:59:00,33.6,7.6,23.86,NE,45,3.6,6.3,33,0.00,,---,0.00,VWS V14.01,2013-01-31 11:59:00,
2013-01-31 05:04:00,34.3,8.9,23.86,SW,224,0.0,2.7,34,0.00,,---,0.00,VWS V14.01,2013-01-31 12:04:00,
2013-01-31 05:10:00,34.0,8.6,23.89,West,278,0.0,0.0,34,0.00,,---,0.00,VWS V14.01,2013-01-31 12:10:00,
2013-01-31 05:15:00,33.3,8.6,23.89,WNW,283,0.0,3.6,35,0.00,,---,0.00,VWS V14.01,2013-01-31 12:15:00,
2013-01-31 05:21:00,32.9,8.3,23.89,NW,322,4.0,7.6,35,0.00,,---,0.00,VWS V14.01,2013-01-31 12:21:00,
2013-01-31 05:26:00,35.6,8.7,23.89,SSE,152,4.9,11.0,32,0.00,,---,0.00,VWS V14.01,2013-01-31 12:26:00,
2013-01-31 05:32:00,37.0,9.2,23.89,SSW,204,5.8,10.1,31,0.00,,---,0.00,VWS V14.01,2013-01-31 12:32:00,
2013-01-31 05:37:00,37.6,9.0,23.89,SSW,209,3.6,5.4,30,0.00,,---,0.00,VWS V14.01,2013-01-31 12:37:00,
2013-01-31 05:43:00,37.4,8.8,23.89,SSW,194,10.1,17.9,30,0.00,,---,0.00,VWS V14.01,2013-01-31 12:43:00,
2013-01-31 05:49:00,37.4,8.8,23.89,SSW,205,2.7,3.1,30,0.00,,---,0.00,VWS V14.01,2013-01-31 12:49:00,
2013-01-31 05:55:00,37.4,8.8,23.89,ENE,67,3.6,5.4,30,0.00,,---,0.00,VWS V14.01,2013-01-31 12:55:00,
2013-01-31 06:01:00,37.4,8.8,23.89,NE,38,0.0,2.2,30,0.00,,---,0.00,VWS V14.01,2013-01-31 13:01:00,
2013-01-31 06:07:00,36.0,8.3,23.89,ENE,60,3.6,4.0,31,0.00,,---,0.00,VWS V14.01,2013-01-31 13:07:00,
2013-01-31 06:13:00,34.5,7.7,23.89,ENE,60,0.0,0.0,32,0.00,,---,0.00,VWS V14.01,2013-01-31 13:13:00,
2013-01-31 06:19:00,34.0,7.2,23.89,NE,47,3.6,4.9,32,0.00,,---,0.00,VWS V14.01,2013-01-31 13:19:00,
2013-01-31 06:25:00,33.8,7.1,23.92,ENE,77,0.0,0.0,32,0.00,,---,0.00,VWS V14.01,2013-01-31 13:25:00,
2013-01-31 06:31:00,33.3,7.3,23.92,NE,52,4.9,5.8,33,0.00,,---,0.00,VWS V14.01,2013-01-31 13:31:00,
2013-01-31 06:36:00,33.4,7.4,23.92,NW,320,0.0,0.0,33,0.00,,---,0.00,VWS V14.01,2013-01-31 13:36:00,
2013-01-31 06:42:00,33.3,7.3,23.92,East,83,3.1,3.1,33,0.00,,---,0.00,VWS V14.01,2013-01-31 13:42:00,
2013-01-31 06:47:00,32.7,6.8,23.92,West,279,3.6,3.6,33,0.00,,---,0.00,VWS V14.01,2013-01-31 13:47:00,
2013-01-31 06:53:00,32.0,6.8,23.92,SW,227,0.0,0.0,34,0.00,,---,0.00,VWS V14.01,2013-01-31 13:53:00,
2013-01-31 06:59:00,31.5,6.3,23.92,NNW,343,0.0,0.0,34,0.00,,---,0.00,VWS V14.01,2013-01-31 13:59:00,
2013-01-31 07:04:00,31.3,6.2,23.92,ENE,74,2.7,6.3,34,0.00,,---,0.00,VWS V14.01,2013-01-31 14:04:00,
2013-01-31 07:10:00,32.9,7.0,23.92,NE,40,4.9,4.9,33,0.00,,---,0.00,VWS V14.01,2013-01-31 14:10:00,
2013-01-31 07:16:00,33.1,7.1,23.92,NNW,332,8.7,8.7,33,0.00,,---,0.00,VWS V14.01,2013-01-31 14:16:00,
2013-01-31 07:22:00,31.8,6.0,23.92,WNW,296,3.6,10.1,33,0.00,,---,0.00,VWS V14.01,2013-01-31 14:22:00,
2013-01-31 07:28:00,31.8,6.7,23.95,East,98,5.4,5.4,34,0.00,,---,0.00,VWS V14.01,2013-01-31 14:28:00,
2013-01-31 07:34:00,30.7,5.7,23.95,East,93,7.6,8.3,34,0.00,,---,0.00,VWS V14.01,2013-01-31 14:34:00,
2013-01-31 07:39:00,30.0,5.7,23.95,ENE,77,6.3,7.6,35,0.00,,---,0.00,VWS V14.01,2013-01-31 14:39:00,
2013-01-31 07:44:00,29.8,5.5,23.95,SSE,152,4.9,5.4,35,0.00,,---,0.00,VWS V14.01,2013-01-31 14:44:00,
2013-01-31 07:49:00,29.5,5.8,23.95,ENE,78,3.6,5.4,36,0.00,,---,0.00,VWS V14.01,2013-01-31 14:49:00,
2013-01-31 07:55:00,27.9,6.1,23.98,NNE,30,6.3,6.3,39,0.00,,---,0.00,VWS V14.01,2013-01-31 14:55:00,
2013-01-31 08:00:00,26.4,6.4,23.98,ESE,106,2.7,5.4,42,0.00,,---,0.00,VWS V14.01,2013-01-31 15:00:00,
2013-01-31 08:06:00,25.7,7.8,23.98,East,79,5.4,5.4,46,0.00,,---,0.00,VWS V14.01,2013-01-31 15:06:00,
2013-01-31 08:11:00,25.7,8.7,23.98,North,8,3.1,5.4,48,0.00,,---,0.00,VWS V14.01,2013-01-31 15:11:00,
2013-01-31 08:17:00,25.7,8.7,23.98,NW,325,4.5,7.6,48,0.00,,---,0.00,VWS V14.01,2013-01-31 15:17:00,
2013-01-31 08:23:00,25.5,9.0,23.98,ENE,69,4.0,6.3,49,0.00,,---,0.00,VWS V14.01,2013-01-31 15:23:00,
2013-01-31 08:28:00,25.0,9.4,24.01,North,357,4.0,5.8,51,0.00,,---,0.00,VWS V14.01,2013-01-31 15:28:00,
2013-01-31 08:34:00,24.4,9.4,24.01,NNE,24,5.8,5.8,52,0.00,,---,0.00,VWS V14.01,2013-01-31 15:34:00,
2013-01-31 08:40:00,24.4,9.8,24.01,NE,44,0.0,2.2,53,0.00,,---,0.00,VWS V14.01,2013-01-31 15:40:00,
2013-01-31 08:46:00,24.6,10.4,24.01,ENE,70,4.0,4.0,54,0.00,,---,0.00,VWS V14.01,2013-01-31 15:46:00,
2013-01-31 08:52:00,25.0,10.7,24.01,NNW,348,5.4,5.4,54,0.00,,---,0.00,VWS V14.01,2013-01-31 15:52:00,
2013-01-31 08:58:00,25.5,10.8,24.01,ENE,69,0.0,3.1,53,0.00,,---,0.00,VWS V14.01,2013-01-31 15:58:00,
2013-01-31 09:03:00,26.1,11.3,24.01,WNW,298,4.0,8.7,53,0.00,,---,0.00,VWS V14.01,2013-01-31 16:03:00,
2013-01-31 09:09:00,27.3,11.6,24.01,East,100,3.6,4.0,51,0.00,,---,0.00,VWS V14.01,2013-01-31 16:09:00,
2013-01-31 09:15:00,28.2,10.1,24.01,ENE,77,5.8,9.6,46,0.00,,---,0.00,VWS V14.01,2013-01-31 16:15:00,
2013-01-31 09:20:00,30.0,10.8,24.01,ESE,113,6.3,6.3,44,0.00,,---,0.00,VWS V14.01,2013-01-31 16:20:00,
2013-01-31 09:26:00,32.7,11.1,24.01,West,259,6.3,7.6,40,0.00,,---,0.00,VWS V14.01,2013-01-31 16:26:00,
2013-01-31 09:32:00,35.4,11.8,24.01,WSW,255,2.2,5.8,37,0.00,,---,0.00,VWS V14.01,2013-01-31 16:32:00,
2013-01-31 09:38:00,36.3,10.6,24.01,South,176,3.6,7.2,34,0.00,,---,0.00,VWS V14.01,2013-01-31 16:38:00,
2013-01-31 09:44:00,37.4,10.2,24.01,SE,141,6.3,7.6,32,0.00,,---,0.00,VWS V14.01,2013-01-31 16:44:00,
2013-01-31 09:50:00,37.9,10.0,24.01,WSW,246,4.9,7.6,31,0.00,,---,0.00,VWS V14.01,2013-01-31 16:50:00,
2013-01-31 09:56:00,38.3,10.3,24.01,WNW,301,5.4,10.1,31,0.00,,---,0.00,VWS V14.01,2013-01-31 16:56:00,
2013-01-31 10:01:00,38.8,10.8,24.01,SSW,211,6.3,6.3,31,0.00,,---,0.00,VWS V14.01,2013-01-31 17:01:00,
2013-01-31 10:06:00,39.2,10.4,24.01,SW,224,8.7,9.2,30,0.00,,---,0.00,VWS V14.01,2013-01-31 17:06:00,
2013-01-31 10:12:00,39.4,10.5,24.01,SW,216,3.1,5.8,30,0.00,,---,0.00,VWS V14.01,2013-01-31 17:12:00,
2013-01-31 10:18:00,40.3,11.3,24.01,NE,41,3.1,5.8,30,0.00,,---,0.00,VWS V14.01,2013-01-31 17:18:00,
2013-01-31 10:24:00,40.5,11.5,24.04,ENE,63,3.6,4.0,30,0.00,,---,0.00,VWS V14.01,2013-01-31 17:24:00,
2013-01-31 10:30:00,40.1,10.4,24.04,WSW,256,7.6,9.6,29,0.00,,---,0.00,VWS V14.01,2013-01-31 17:30:00,
2013-01-31 10:36:00,40.5,10.7,24.04,NNE,28,4.9,4.9,29,0.00,,---,0.00,VWS V14.01,2013-01-31 17:36:00,
2013-01-31 10:42:00,41.0,11.2,24.04,South,170,3.6,6.3,29,0.00,,---,0.00,VWS V14.01,2013-01-31 17:42:00,
2013-01-31 10:47:00,40.8,11.0,24.04,SSW,202,5.4,16.8,29,0.00,,---,0.00,VWS V14.01,2013-01-31 17:47:00,
2013-01-31 10:53:00,40.5,10.7,24.04,SSW,192,5.4,6.3,29,0.00,,---,0.00,VWS V14.01,2013-01-31 17:53:00,
2013-01-31 10:58:00,40.6,10.9,24.04,South,182,10.5,11.0,29,0.00,,---,0.00,VWS V14.01,2013-01-31 17:58:00,
2013-01-31 11:03:00,40.8,11.0,24.04,WSW,240,3.6,10.1,29,0.00,,---,0.00,VWS V14.01,2013-01-31 18:03:00,
2013-01-31 11:09:00,40.8,11.0,24.04,ESE,111,2.7,5.8,29,0.00,,---,0.00,VWS V14.01,2013-01-31 18:09:00,
2013-01-31 11:15:00,41.0,11.2,24.04,SSE,147,5.8,8.1,29,0.00,,---,0.00,VWS V14.01,2013-01-31 18:15:00,
2013-01-31 11:21:00,40.6,10.9,24.04,East,90,5.4,6.3,29,0.00,,---,0.00,VWS V14.01,2013-01-31 18:21:00,
2013-01-31 11:27:00,40.8,11.0,24.04,SSE,156,12.8,12.8,29,0.00,,---,0.00,VWS V14.01,2013-01-31 18:27:00,
2013-01-31 11:33:00,41.0,11.2,24.04,SSW,193,7.6,12.8,29,0.00,,---,0.00,VWS V14.01,2013-01-31 18:33:00,
2013-01-31 11:39:00,41.0,11.2,24.04,SSW,210,11.0,11.0,29,0.00,,---,0.00,VWS V14.01,2013-01-31 18:39:00,
2013-01-31 11:45:00,41.4,11.5,24.04,NNE,14,3.1,10.1,29,0.00,,---,0.00,VWS V14.01,2013-01-31 18:45:00,
2013-01-31 11:51:00,41.2,11.4,24.04,WNW,289,11.0,11.0,29,0.00,,---,0.00,VWS V14.01,2013-01-31 18:51:00,
2013-01-31 11:56:00,41.7,11.8,24.04,South,169,5.8,11.0,29,0.00,,---,0.00,VWS V14.01,2013-01-31 18:56:00,
2013-01-31 12:02:00,41.9,12.0,24.04,South,187,3.1,7.6,29,0.00,,---,0.00,VWS V14.01,2013-01-31 19:02:00,
2013-01-31 12:08:00,41.7,11.8,24.04,North,353,8.3,8.3,29,0.00,,---,0.00,VWS V14.01,2013-01-31 19:08:00,
2013-01-31 12:14:00,42.3,12.3,24.01,South,180,6.7,6.7,29,0.00,,---,0.00,VWS V14.01,2013-01-31 19:14:00,
2013-01-31 12:20:00,42.3,11.5,24.01,SSE,153,8.1,8.7,28,0.00,,---,0.00,VWS V14.01,2013-01-31 19:20:00,
2013-01-31 12:26:00,42.3,12.3,24.04,SSW,206,3.6,4.0,29,0.00,,---,0.00,VWS V14.01,2013-01-31 19:26:00,
2013-01-31 12:32:00,42.3,12.3,24.04,South,181,5.4,6.3,29,0.00,,---,0.00,VWS V14.01,2013-01-31 19:32:00,
2013-01-31 12:38:00,42.3,11.5,24.04,South,180,4.0,11.0,28,0.00,,---,0.00,VWS V14.01,2013-01-31 19:38:00,
2013-01-31 12:43:00,42.4,12.4,24.04,SE,124,4.0,4.0,29,0.00,,---,0.00,VWS V14.01,2013-01-31 19:43:00,
2013-01-31 12:48:00,42.4,11.7,24.04,South,191,8.3,10.1,28,0.00,,---,0.00,VWS V14.01,2013-01-31 19:48:00,
2013-01-31 12:54:00,42.1,11.3,24.04,SSW,200,4.9,8.1,28,0.00,,---,0.00,VWS V14.01,2013-01-31 19:54:00,
2013-01-31 13:00:00,42.3,12.3,24.04,ESE,119,4.0,5.8,29,0.00,,---,0.00,VWS V14.01,2013-01-31 20:00:00,
2013-01-31 13:05:00,42.4,11.7,24.04,East,93,7.6,8.1,28,0.00,,---,0.00,VWS V14.01,2013-01-31 20:05:00,
2013-01-31 13:11:00,42.4,11.7,24.04,SSW,205,5.8,14.5,28,0.00,,---,0.00,VWS V14.01,2013-01-31 20:11:00,
2013-01-31 13:17:00,42.1,11.3,24.04,South,169,10.5,17.4,28,0.00,,---,0.00,VWS V14.01,2013-01-31 20:17:00,
2013-01-31 13:22:00,41.9,11.2,24.04,SSW,195,8.1,12.8,28,0.00,,---,0.00,VWS V14.01,2013-01-31 20:22:00,
2013-01-31 13:27:00,41.5,11.7,24.04,ESE,115,7.6,11.0,29,0.00,,---,0.00,VWS V14.01,2013-01-31 20:27:00,
2013-01-31 13:33:00,41.4,10.7,24.04,SW,222,8.1,8.1,28,0.00,,---,0.00,VWS V14.01,2013-01-31 20:33:00,
2013-01-31 13:39:00,41.2,10.6,24.01,South,186,6.3,10.5,28,0.00,,---,0.00,VWS V14.01,2013-01-31 20:39:00,
2013-01-31 13:45:00,41.0,10.4,24.01,WSW,249,10.1,15.0,28,0.00,,---,0.00,VWS V14.01,2013-01-31 20:45:00,
2013-01-31 13:50:00,40.8,11.0,24.01,SW,219,3.6,6.3,29,0.00,,---,0.00,VWS V14.01,2013-01-31 20:50:00,
2013-01-31 13:55:00,40.8,11.0,24.01,SSW,198,5.4,10.5,29,0.00,,---,0.00,VWS V14.01,2013-01-31 20:55:00,
2013-01-31 14:01:00,41.0,10.4,24.01,South,177,12.8,12.8,28,0.00,,---,0.00,VWS V14.01,2013-01-31 21:01:00,
2013-01-31 14:07:00,41.4,10.7,24.01,SW,215,5.4,19.7,28,0.00,,---,0.00,VWS V14.01,2013-01-31 21:07:00,
2013-01-31 14:13:00,41.5,10.9,24.01,South,172,5.4,5.8,28,0.00,,---,0.00,VWS V14.01,2013-01-31 21:13:00,
2013-01-31 14:19:00,41.5,10.9,24.01,NW,307,2.7,9.6,28,0.00,,---,0.00,VWS V14.01,2013-01-31 21:19:00,
2013-01-31 14:24:00,41.2,11.4,24.01,SSW,206,7.6,8.1,29,0.00,,---,0.00,VWS V14.01,2013-01-31 21:24:00,
2013-01-31 14:30:00,41.0,10.4,24.01,SW,218,6.3,11.0,28,0.00,,---,0.00,VWS V14.01,2013-01-31 21:30:00,
2013-01-31 14:36:00,40.8,11.0,24.01,SSW,194,5.8,7.6,29,0.00,,---,0.00,VWS V14.01,2013-01-31 21:36:00,
2013-01-31 14:42:00,40.6,10.9,24.01,WNW,302,8.3,8.3,29,0.00,,---,0.00,VWS V14.01,2013-01-31 21:42:00,
2013-01-31 14:48:00,41.0,10.4,24.01,SSE,149,5.4,10.1,28,0.00,,---,0.00,VWS V14.01,2013-01-31 21:48:00,
2013-01-31 14:54:00,41.2,10.6,24.01,SSW,212,5.4,14.5,28,0.00,,---,0.00,VWS V14.01,2013-01-31 21:54:00,
2013-01-31 14:59:00,41.2,10.6,24.01,NW,309,4.9,12.8,28,0.00,,---,0.00,VWS V14.01,2013-01-31 21:59:00,
2013-01-31 15:04:00,41.2,10.6,24.01,SSE,148,10.1,10.1,28,0.00,,---,0.00,VWS V14.01,2013-01-31 22:04:00,
2013-01-31 15:09:00,41.2,10.6,24.01,SE,126,5.4,8.7,28,0.00,,---,0.00,VWS V14.01,2013-01-31 22:09:00,
2013-01-31 15:15:00,41.2,10.6,24.01,South,182,9.6,13.2,28,0.00,,---,0.00,VWS V14.01,2013-01-31 22:15:00,
2013-01-31 15:21:00,41.2,10.6,24.01,SSE,157,6.3,6.3,28,0.00,,---,0.00,VWS V14.01,2013-01-31 22:21:00,
2013-01-31 15:26:00,41.2,10.6,24.01,SSW,207,7.6,10.1,28,0.00,,---,0.00,VWS V14.01,2013-01-31 22:26:00,
2013-01-31 15:32:00,41.4,10.7,24.01,South,191,7.6,14.1,28,0.00,,---,0.00,VWS V14.01,2013-01-31 22:32:00,
2013-01-31 15:37:00,41.4,10.7,24.01,NW,322,2.7,4.9,28,0.00,,---,0.00,VWS V14.01,2013-01-31 22:37:00,
2013-01-31 15:43:00,41.4,10.7,24.01,East,100,5.4,5.8,28,0.00,,---,0.00,VWS V14.01,2013-01-31 22:43:00,
2013-01-31 15:49:00,41.5,10.9,24.01,SSW,195,4.0,7.6,28,0.00,,---,0.00,VWS V14.01,2013-01-31 22:49:00,
2013-01-31 15:54:00,41.5,10.9,24.01,SW,235,6.3,6.3,28,0.00,,---,0.00,VWS V14.01,2013-01-31 22:54:00,
2013-01-31 16:00:00,41.4,10.7,24.01,SSW,201,9.2,9.2,28,0.00,,---,0.00,VWS V14.01,2013-01-31 23:00:00,
2013-01-31 16:05:00,41.2,10.6,24.01,SSW,192,7.6,8.1,28,0.00,,---,0.00,VWS V14.01,2013-01-31 23:05:00,
2013-01-31 16:10:00,41.2,10.6,24.01,SSW,195,4.0,12.3,28,0.00,,---,0.00,VWS V14.01,2013-01-31 23:10:00,
2013-01-31 16:16:00,41.4,10.7,24.01,NW,315,17.4,17.4,28,0.00,,---,0.00,VWS V14.01,2013-01-31 23:16:00,
2013-01-31 16:22:00,41.4,10.7,24.01,WNW,291,5.8,8.1,28,0.00,,---,0.00,VWS V14.01,2013-01-31 23:22:00,
2013-01-31 16:28:00,41.2,10.6,24.01,NW,306,3.6,4.9,28,0.00,,---,0.00,VWS V14.01,2013-01-31 23:28:00,
2013-01-31 16:33:00,41.0,10.4,24.01,North,349,6.3,6.3,28,0.00,,---,0.00,VWS V14.01,2013-01-31 23:33:00,
2013-01-31 16:39:00,40.6,10.1,24.01,SSW,198,3.6,8.1,28,0.00,,---,0.00,VWS V14.01,2013-01-31 23:39:00,
2013-01-31 16:45:00,40.5,10.7,24.01,SW,216,0.0,0.0,29,0.00,,---,0.00,VWS V14.01,2013-01-31 23:45:00,
2013-01-31 16:51:00,39.6,9.9,24.01,North,357,5.4,5.4,29,0.00,,---,0.00,VWS V14.01,2013-01-31 23:51:00,
2013-01-31 16:56:00,39.7,10.1,24.04,South,184,4.9,5.4,29,0.00,,---,0.00,VWS V14.01,2013-01-31 23:56:00,
2013-01-31 17:02:00,39.9,10.2,24.04,SW,217,6.3,7.2,29,0.00,,---,0.00,VWS V14.01,2013-02-01 00:02:00,
2013-01-31 17:07:00,40.3,10.6,24.04,SE,139,5.8,5.8,29,0.00,,---,0.00,VWS V14.01,2013-02-01 00:07:00,
2013-01-31 17:13:00,40.1,10.4,24.01,SW,230,3.1,5.4,29,0.00,,---,0.00,VWS V14.01,2013-02-01 00:13:00,
2013-01-31 17:19:00,40.3,10.6,24.01,WNW,295,8.1,8.1,29,0.00,,---,0.00,VWS V14.01,2013-02-01 00:19:00,
2013-01-31 17:25:00,40.6,10.1,24.01,WSW,250,7.6,13.2,28,0.00,,---,0.00,VWS V14.01,2013-02-01 00:25:00,
2013-01-31 17:31:00,40.6,10.1,24.01,WNW,299,7.6,13.2,28,0.00,,---,0.00,VWS V14.01,2013-02-01 00:31:00,
2013-01-31 17:36:00,40.6,10.1,24.01,SW,233,3.1,11.0,28,0.00,,---,0.00,VWS V14.01,2013-02-01 00:36:00,
2013-01-31 17:42:00,40.5,9.9,24.01,WSW,241,4.0,11.0,28,0.00,,---,0.00,VWS V14.01,2013-02-01 00:42:00,
2013-01-31 17:48:00,40.6,10.1,24.01,West,280,12.8,12.8,28,0.00,,---,0.00,VWS V14.01,2013-02-01 00:48:00,
2013-01-31 17:54:00,40.8,10.2,24.01,WSW,241,6.3,14.5,28,0.00,,---,0.00,VWS V14.01,2013-02-01 00:54:00,
2013-01-31 18:00:00,40.8,10.2,24.01,WNW,285,7.6,7.6,28,0.00,,---,0.00,VWS V14.01,2013-02-01 01:00:00,
2013-01-31 18:05:00,41.0,10.4,24.01,West,263,8.7,13.2,28,0.00,,---,0.00,VWS V14.01,2013-02-01 01:05:00,
2013-01-31 18:10:00,41.2,10.6,24.01,SSW,202,3.6,8.3,28,0.00,,---,0.00,VWS V14.01,2013-02-01 01:10:00,
2013-01-31 18:16:00,41.4,10.7,24.01,WNW,300,5.8,8.3,28,0.00,,---,0.00,VWS V14.01,2013-02-01 01:16:00,
2013-01-31 18:21:00,41.5,10.9,24.01,South,170,10.1,10.1,28,0.00,,---,0.00,VWS V14.01,2013-02-01 01:21:00,
2013-01-31 18:27:00,41.7,11.0,24.04,WNW,301,6.3,13.2,28,0.00,,---,0.00,VWS V14.01,2013-02-01 01:27:00,
2013-01-31 18:33:00,41.7,9.4,24.04,NNW,343,5.4,8.3,26,0.00,,---,0.00,VWS V14.01,2013-02-01 01:33:00,
2013-01-31 18:39:00,41.9,9.5,24.04,West,277,8.1,11.0,26,0.00,,---,0.00,VWS V14.01,2013-02-01 01:39:00,
2013-01-31 18:44:00,41.7,11.0,24.04,WNW,292,11.4,11.4,28,0.00,,---,0.00,VWS V14.01,2013-02-01 01:44:00,
2013-01-31 18:50:00,41.7,11.0,24.04,West,263,7.6,24.2,28,0.00,,---,0.00,VWS V14.01,2013-02-01 01:50:00,
2013-01-31 18:56:00,41.7,11.0,24.04,West,274,4.9,8.7,28,0.00,,---,0.00,VWS V14.01,2013-02-01 01:56:00,
2013-01-31 19:02:00,41.5,10.9,24.04,North,9,5.4,11.0,28,0.00,,---,0.00,VWS V14.01,2013-02-01 02:02:00,
2013-01-31 19:08:00,41.5,10.9,24.04,NNW,346,4.0,8.7,28,0.00,,---,0.00,VWS V14.01,2013-02-01 02:08:00,
2013-01-31 19:13:00,41.5,9.2,24.04,NE,36,2.7,8.7,26,0.00,,---,0.00,VWS V14.01,2013-02-01 02:13:00,
2013-01-31 19:19:00,41.5,10.9,24.04,SW,234,3.1,8.1,28,0.00,,---,0.00,VWS V14.01,2013-02-01 02:19:00,
2013-01-31 19:25:00,41.2,10.6,24.04,NW,305,2.7,4.0,28,0.00,,---,0.00,VWS V14.01,2013-02-01 02:25:00,
2013-01-31 19:31:00,41.0,10.4,24.04,North,6,3.6,4.5,28,0.00,,---,0.00,VWS V14.01,2013-02-01 02:31:00,
2013-01-31 19:36:00,40.8,10.2,24.04,ENE,57,4.0,4.9,28,0.00,,---,0.00,VWS V14.01,2013-02-01 02:36:00,
2013-01-31 19:42:00,39.9,9.5,24.04,North,357,2.7,4.0,28,0.00,,---,0.00,VWS V14.01,2013-02-01 02:42:00,
2013-01-31 19:48:00,39.6,9.2,24.04,West,269,4.9,6.3,28,0.00,,---,0.00,VWS V14.01,2013-02-01 02:48:00,
2013-01-31 19:54:00,39.9,9.5,24.04,NE,49,3.6,4.9,28,0.00,,---,0.00,VWS V14.01,2013-02-01 02:54:00,
2013-01-31 20:00:00,39.9,9.5,24.04,South,188,2.7,3.6,28,0.00,,---,0.00,VWS V14.01,2013-02-01 03:00:00,
2013-01-31 20:05:00,39.6,9.2,24.04,South,191,3.1,4.0,28,0.00,,---,0.00,VWS V14.01,2013-02-01 03:05:00,
2013-01-31 20:11:00,39.7,9.3,24.04,West,281,3.6,9.6,28,0.00,,---,0.00,VWS V14.01,2013-02-01 03:11:00,
2013-01-31 20:16:00,40.1,9.6,24.04,WNW,298,2.7,3.1,28,0.00,,---,0.00,VWS V14.01,2013-02-01 03:16:00,
2013-01-31 20:22:00,39.9,9.5,24.04,East,101,4.9,5.4,28,0.00,,---,0.00,VWS V14.01,2013-02-01 03:22:00,
2013-01-31 20:27:00,39.9,9.5,24.04,WSW,249,3.1,3.6,28,0.00,,---,0.00,VWS V14.01,2013-02-01 03:27:00,
2013-01-31 20:33:00,39.4,9.0,24.04,SSW,201,5.8,5.8,28,0.00,,---,0.00,VWS V14.01,2013-02-01 03:33:00,
2013-01-31 20:39:00,39.6,9.2,24.04,NNE,22,0.0,3.6,28,0.00,,---,0.00,VWS V14.01,2013-02-01 03:39:00,
2013-01-31 20:45:00,39.4,9.0,24.04,ESE,123,4.5,4.5,28,0.00,,---,0.00,VWS V14.01,2013-02-01 03:45:00,
2013-01-31 20:51:00,39.2,9.6,24.04,South,178,3.6,3.6,29,0.00,,---,0.00,VWS V14.01,2013-02-01 03:51:00,
2013-01-31 20:57:00,39.0,9.5,24.07,SW,224,3.6,3.6,29,0.00,,---,0.00,VWS V14.01,2013-02-01 03:57:00,
2013-01-31 21:02:00,39.2,9.6,24.07,WSW,240,3.1,8.1,29,0.00,,---,0.00,VWS V14.01,2013-02-01 04:02:00,
2013-01-31 21:08:00,39.6,9.9,24.07,SW,219,4.9,5.4,29,0.00,,---,0.00,VWS V14.01,2013-02-01 04:08:00,
2013-01-31 21:13:00,39.2,9.6,24.07,West,280,4.9,4.9,29,0.00,,---,0.00,VWS V14.01,2013-02-01 04:13:00,
2013-01-31 21:19:00,38.3,8.8,24.07,SSW,197,0.0,0.0,29,0.00,,---,0.00,VWS V14.01,2013-02-01 04:19:00,
2013-01-31 21:25:00,37.8,8.4,24.07,WSW,255,2.2,8.7,29,0.00,,---,0.00,VWS V14.01,2013-02-01 04:25:00,
2013-01-31 21:30:00,38.3,8.8,24.07,West,278,0.0,3.6,29,0.00,,---,0.00,VWS V14.01,2013-02-01 04:30:00,
2013-01-31 21:36:00,38.5,9.0,24.07,South,169,0.0,0.0,29,0.00,,---,0.00,VWS V14.01,2013-02-01 04:36:00,
2013-01-31 21:42:00,38.3,8.8,24.07,SSW,200,5.4,5.4,29,0.00,,---,0.00,VWS V14.01,2013-02-01 04:42:00,
2013-01-31 21:48:00,37.8,8.4,24.07,SE,146,3.6,4.0,29,0.00,,---,0.00,VWS V14.01,2013-02-01 04:48:00,
2013-01-31 21:54:00,37.9,8.5,24.07,SE,128,3.1,4.0,29,0.00,,---,0.00,VWS V14.01,2013-02-01 04:54:00,
2013-01-31 21:59:00,37.4,8.1,24.07,SW,225,0.0,0.0,29,0.00,,---,0.00,VWS V14.01,2013-02-01 04:59:00,
2013-01-31 22:00:00,37.2,8.6,24.07,SSW,192,0.0,0.0,30,0.00,,---,0.00,VWS V14.01,2013-02-01 05:00:00,
2013-01-31 22:01:00,37.2,8.6,24.07,SSW,192,0.0,0.0,30,0.00,,---,0.00,VWS V14.01,2013-02-01 05:01:00,
2013-01-31 22:02:00,37.0,8.5,24.07,SSW,192,0.0,0.0,30,0.00,,---,0.00,VWS V14.01,2013-02-01 05:02:00,
2013-01-31 22:05:00,36.3,7.9,24.07,SSW,193,0.0,0.0,30,0.00,,---,0.00,VWS V14.01,2013-02-01 05:05:00,
2013-01-31 22:10:00,35.6,7.2,24.07,WSW,258,2.7,2.7,30,0.00,,---,0.00,VWS V14.01,2013-02-01 05:10:00,
2013-01-31 22:15:00,35.8,7.4,24.07,WNW,303,0.0,5.4,30,0.00,,---,0.00,VWS V14.01,2013-02-01 05:15:00,
2013-01-31 22:21:00,36.9,8.3,24.07,NW,316,6.3,6.3,30,0.00,,---,0.00,VWS V14.01,2013-02-01 05:21:00,
2013-01-31 22:27:00,37.4,8.1,24.07,NW,323,2.7,3.6,29,0.00,,---,0.00,VWS V14.01,2013-02-01 05:27:00,
2013-01-31 22:32:00,37.4,8.1,24.07,West,264,2.2,5.4,29,0.00,,---,0.00,VWS V14.01,2013-02-01 05:32:00,
2013-01-31 22:38:00,37.6,8.2,24.07,SSE,165,2.2,4.5,29,0.00,,---,0.00,VWS V14.01,2013-02-01 05:38:00,
2013-01-31 22:43:00,37.6,8.2,24.07,West,260,2.2,6.3,29,0.00,,---,0.00,VWS V14.01,2013-02-01 05:43:00,
2013-01-31 22:49:00,37.9,8.5,24.07,SE,137,3.6,3.6,29,0.00,,---,0.00,VWS V14.01,2013-02-01 05:49:00,
2013-01-31 22:55:00,37.6,8.2,24.07,South,178,2.7,3.6,29,0.00,,---,0.00,VWS V14.01,2013-02-01 05:55:00,
2013-01-31 23:01:00,37.4,8.1,24.07,SSE,153,3.1,3.1,29,0.00,,---,0.00,VWS V14.01,2013-02-01 06:01:00,
2013-01-31 23:07:00,36.9,8.3,24.07,SW,230,3.1,6.3,30,0.00,,---,0.00,VWS V14.01,2013-02-01 06:07:00,
2013-01-31 23:13:00,36.5,8.0,24.04,West,259,2.7,3.1,30,0.00,,---,0.00,VWS V14.01,2013-02-01 06:13:00,
2013-01-31 23:19:00,36.1,7.7,24.04,WNW,284,8.3,8.3,30,0.00,,---,0.00,VWS V14.01,2013-02-01 06:19:00,
2013-01-31 23:25:00,37.0,8.5,24.04,NW,316,3.1,4.9,30,0.00,,---,0.00,VWS V14.01,2013-02-01 06:25:00,
2013-01-31 23:30:00,37.8,8.4,24.04,WSW,245,5.8,8.3,29,0.00,,---,0.00,VWS V14.01,2013-02-01 06:30:00,
2013-01-31 23:36:00,37.9,8.5,24.04,NE,49,3.1,5.8,29,0.00,,---,0.00,VWS V14.01,2013-02-01 06:36:00,
2013-01-31 23:42:00,37.9,8.5,24.04,NW,316,2.7,5.4,29,0.00,,---,0.00,VWS V14.01,2013-02-01 06:42:00,
2013-01-31 23:48:00,37.9,8.5,24.04,West,278,3.6,4.9,29,0.00,,---,0.00,VWS V14.01,2013-02-01 06:48:00,
2013-01-31 23:54:00,38.5,9.0,24.04,SE,141,4.9,13.2,29,0.00,,---,0.00,VWS V14.01,2013-02-01 06:54:00,
2013-01-31 23:59:00,38.1,8.7,24.04,WNW,294,4.9,7.6,29,0.00,,---,0.00,VWS V14.01,2013-02-01 06:59:00,